sensor_id;sensor_type;location;lat;lon;timestamp;pressure;altitude;pressure_sealevel;temperature;humidity
9423;BME280;4750;49.506;10.400;2022-11-12T00:00:25;99656.44;;;2.28;97.98
9423;BME280;4750;49.506;10.400;2022-11-12T00:03:28;99624.50;;;2.04;97.96
9423;BME280;4750;49.506;10.400;2022-11-12T00:06:30;99675.56;;;2.35;98.00
9423;BME280;4750;49.506;10.400;2022-11-12T00:09:33;99655.66;;;2.18;98.00
9423;BME280;4750;49.506;10.400;2022-11-12T00:12:36;99656.84;;;2.08;97.77
9423;BME280;4750;49.506;10.400;2022-11-12T00:15:39;99648.19;;;2.05;97.95
9423;BME280;4750;49.506;10.400;2022-11-12T00:18:42;99637.56;;;2.04;98.13
9423;BME280;4750;49.506;10.400;2022-11-12T00:21:45;99640.25;;;1.85;97.39
9423;BME280;4750;49.506;10.400;2022-11-12T00:24:48;99657.31;;;1.84;97.64
9423;BME280;4750;49.506;10.400;2022-11-12T00:27:50;99644.31;;;1.71;97.63
9423;BME280;4750;49.506;10.400;2022-11-12T00:30:53;99676.06;;;1.80;97.48
9423;BME280;4750;49.506;10.400;2022-11-12T00:33:56;99643.00;;;1.54;97.45
9423;BME280;4750;49.506;10.400;2022-11-12T00:37:00;99676.53;;;1.78;97.35
9423;BME280;4750;49.506;10.400;2022-11-12T00:40:04;99651.69;;;1.65;97.45
9423;BME280;4750;49.506;10.400;2022-11-12T00:43:07;99656.00;;;1.66;97.47
9423;BME280;4750;49.506;10.400;2022-11-12T00:46:10;99618.72;;;1.36;97.71
9423;BME280;4750;49.506;10.400;2022-11-12T00:49:13;99650.59;;;1.63;97.49
9423;BME280;4750;49.506;10.400;2022-11-12T00:52:16;99658.69;;;1.57;97.58
9423;BME280;4750;49.506;10.400;2022-11-12T00:55:19;99621.56;;;1.23;97.19
9423;BME280;4750;49.506;10.400;2022-11-12T00:58:22;99634.00;;;1.41;97.12
9423;BME280;4750;49.506;10.400;2022-11-12T01:01:25;99639.81;;;1.33;97.39
9423;BME280;4750;49.506;10.400;2022-11-12T01:04:28;99635.28;;;1.27;97.17
9423;BME280;4750;49.506;10.400;2022-11-12T01:07:31;99641.31;;;1.34;97.20
9423;BME280;4750;49.506;10.400;2022-11-12T01:10:35;99650.53;;;1.31;97.31
9423;BME280;4750;49.506;10.400;2022-11-12T01:13:46;99657.56;;;1.45;97.25
9423;BME280;4750;49.506;10.400;2022-11-12T01:16:49;99635.59;;;1.29;97.59
9423;BME280;4750;49.506;10.400;2022-11-12T01:19:52;99631.41;;;1.24;97.23
9423;BME280;4750;49.506;10.400;2022-11-12T01:22:54;99575.94;;;0.83;97.13
9423;BME280;4750;49.506;10.400;2022-11-12T01:25:57;99647.56;;;1.26;97.50
9423;BME280;4750;49.506;10.400;2022-11-12T01:29:01;99635.66;;;1.16;97.64
9423;BME280;4750;49.506;10.400;2022-11-12T01:32:04;99630.81;;;1.07;97.46
9423;BME280;4750;49.506;10.400;2022-11-12T01:35:07;99638.59;;;0.99;97.26
9423;BME280;4750;49.506;10.400;2022-11-12T01:38:10;99637.91;;;1.08;97.01
9423;BME280;4750;49.506;10.400;2022-11-12T01:41:15;99657.69;;;1.19;97.12
9423;BME280;4750;49.506;10.400;2022-11-12T01:44:20;99646.47;;;1.01;96.97
9423;BME280;4750;49.506;10.400;2022-11-12T01:47:28;99645.66;;;1.00;97.04
9423;BME280;4750;49.506;10.400;2022-11-12T01:50:34;99608.34;;;0.83;97.29
9423;BME280;4750;49.506;10.400;2022-11-12T01:53:45;99623.13;;;0.89;96.94
9423;BME280;4750;49.506;10.400;2022-11-12T01:56:49;99639.72;;;0.89;97.07
9423;BME280;4750;49.506;10.400;2022-11-12T01:59:57;99655.47;;;1.14;97.29
9423;BME280;4750;49.506;10.400;2022-11-12T02:03:07;99641.94;;;0.94;96.96
9423;BME280;4750;49.506;10.400;2022-11-12T02:06:13;99634.13;;;0.80;97.18
9423;BME280;4750;49.506;10.400;2022-11-12T02:09:16;99628.19;;;0.68;97.10
9423;BME280;4750;49.506;10.400;2022-11-12T02:12:20;99626.31;;;0.65;97.06
9423;BME280;4750;49.506;10.400;2022-11-12T02:15:42;99610.78;;;0.46;96.87
9423;BME280;4750;49.506;10.400;2022-11-12T02:18:45;99621.81;;;0.46;96.93
9423;BME280;4750;49.506;10.400;2022-11-12T02:21:48;99610.22;;;0.25;96.53
9423;BME280;4750;49.506;10.400;2022-11-12T02:24:51;99593.22;;;0.14;96.87
9423;BME280;4750;49.506;10.400;2022-11-12T02:27:55;99608.91;;;0.30;96.67
9423;BME280;4750;49.506;10.400;2022-11-12T02:30:58;99451.84;;;-0.67;96.52
9423;BME280;4750;49.506;10.400;2022-11-12T02:34:01;99583.84;;;0.24;96.80
9423;BME280;4750;49.506;10.400;2022-11-12T02:37:04;99601.81;;;0.42;96.88
9423;BME280;4750;49.506;10.400;2022-11-12T02:40:07;99602.69;;;0.51;96.90
9423;BME280;4750;49.506;10.400;2022-11-12T02:43:11;99605.72;;;0.66;97.17
9423;BME280;4750;49.506;10.400;2022-11-12T02:46:14;99585.94;;;0.68;96.84
9423;BME280;4750;49.506;10.400;2022-11-12T02:49:16;99594.53;;;0.83;97.06
9423;BME280;4750;49.506;10.400;2022-11-12T02:52:19;99598.50;;;0.82;96.83
9423;BME280;4750;49.506;10.400;2022-11-12T02:55:22;99608.19;;;0.99;97.20
9423;BME280;4750;49.506;10.400;2022-11-12T02:58:25;99630.00;;;1.19;97.21
9423;BME280;4750;49.506;10.400;2022-11-12T03:01:28;99590.59;;;0.93;96.96
9423;BME280;4750;49.506;10.400;2022-11-12T03:04:30;99628.25;;;1.13;97.02
9423;BME280;4750;49.506;10.400;2022-11-12T03:07:33;99618.34;;;1.02;96.84
9423;BME280;4750;49.506;10.400;2022-11-12T03:10:37;99628.09;;;1.29;97.24
9423;BME280;4750;49.506;10.400;2022-11-12T03:13:41;99621.56;;;1.23;97.32
9423;BME280;4750;49.506;10.400;2022-11-12T03:16:44;99613.66;;;1.34;97.12
9423;BME280;4750;49.506;10.400;2022-11-12T03:19:47;99581.56;;;1.15;96.90
9423;BME280;4750;49.506;10.400;2022-11-12T03:22:56;99627.59;;;1.53;97.61
9423;BME280;4750;49.506;10.400;2022-11-12T03:26:01;99597.75;;;1.48;97.64
9423;BME280;4750;49.506;10.400;2022-11-12T03:29:04;99583.53;;;1.36;97.50
9423;BME280;4750;49.506;10.400;2022-11-12T03:32:07;99596.03;;;1.41;97.24
9423;BME280;4750;49.506;10.400;2022-11-12T03:35:09;99629.34;;;1.60;97.23
9423;BME280;4750;49.506;10.400;2022-11-12T03:38:12;99613.78;;;1.53;97.48
9423;BME280;4750;49.506;10.400;2022-11-12T03:41:15;99620.53;;;1.52;97.12
9423;BME280;4750;49.506;10.400;2022-11-12T03:44:18;99619.06;;;1.38;97.36
9423;BME280;4750;49.506;10.400;2022-11-12T03:47:21;99617.31;;;1.31;96.88
9423;BME280;4750;49.506;10.400;2022-11-12T03:50:26;99572.59;;;0.89;97.17
9423;BME280;4750;49.506;10.400;2022-11-12T03:53:30;99654.16;;;1.41;97.33
9423;BME280;4750;49.506;10.400;2022-11-12T03:56:33;99603.31;;;1.03;97.29
9423;BME280;4750;49.506;10.400;2022-11-12T03:59:35;99605.81;;;1.11;97.09
9423;BME280;4750;49.506;10.400;2022-11-12T04:02:38;99634.94;;;1.25;97.07
9423;BME280;4750;49.506;10.400;2022-11-12T04:05:41;99631.31;;;1.28;96.96
9423;BME280;4750;49.506;10.400;2022-11-12T04:09:03;99626.84;;;1.30;97.14
9423;BME280;4750;49.506;10.400;2022-11-12T04:12:05;99644.16;;;1.44;97.37
9423;BME280;4750;49.506;10.400;2022-11-12T04:15:28;99618.41;;;1.12;97.17
9423;BME280;4750;49.506;10.400;2022-11-12T04:18:31;99650.22;;;1.29;97.19
9423;BME280;4750;49.506;10.400;2022-11-12T04:22:06;99651.13;;;1.26;97.36
9423;BME280;4750;49.506;10.400;2022-11-12T04:25:09;99640.53;;;1.12;97.45
9423;BME280;4750;49.506;10.400;2022-11-12T04:28:30;99645.75;;;1.10;97.23
9423;BME280;4750;49.506;10.400;2022-11-12T04:31:33;99646.22;;;1.08;97.44
9423;BME280;4750;49.506;10.400;2022-11-12T04:34:36;99634.34;;;1.08;97.43
9423;BME280;4750;49.506;10.400;2022-11-12T04:37:38;99650.38;;;1.13;97.35
9423;BME280;4750;49.506;10.400;2022-11-12T04:40:47;99651.28;;;1.10;97.54
9423;BME280;4750;49.506;10.400;2022-11-12T04:44:09;99646.78;;;1.03;97.23
9423;BME280;4750;49.506;10.400;2022-11-12T04:47:36;99672.84;;;1.15;97.23
9423;BME280;4750;49.506;10.400;2022-11-12T04:50:40;99649.03;;;0.95;97.34
9423;BME280;4750;49.506;10.400;2022-11-12T04:53:43;99681.97;;;1.02;97.14
9423;BME280;4750;49.506;10.400;2022-11-12T04:56:47;99668.59;;;1.01;97.10
9423;BME280;4750;49.506;10.400;2022-11-12T04:59:49;99643.66;;;0.66;96.88
9423;BME280;4750;49.506;10.400;2022-11-12T05:02:52;99676.91;;;0.88;96.94
9423;BME280;4750;49.506;10.400;2022-11-12T05:06:05;99666.16;;;0.90;97.47
9423;BME280;4750;49.506;10.400;2022-11-12T05:09:28;99646.44;;;0.66;96.85
9423;BME280;4750;49.506;10.400;2022-11-12T05:12:31;99673.16;;;0.82;97.21
9423;BME280;4750;49.506;10.400;2022-11-12T05:15:34;99667.63;;;0.82;97.36
9423;BME280;4750;49.506;10.400;2022-11-12T05:18:39;99639.91;;;0.73;97.15
9423;BME280;4750;49.506;10.400;2022-11-12T05:21:42;99641.31;;;0.77;97.34
9423;BME280;4750;49.506;10.400;2022-11-12T05:25:05;99663.16;;;0.97;97.45
9423;BME280;4750;49.506;10.400;2022-11-12T05:28:11;99672.97;;;1.11;97.10
9423;BME280;4750;49.506;10.400;2022-11-12T05:31:13;99686.91;;;1.20;97.37
9423;BME280;4750;49.506;10.400;2022-11-12T05:34:16;99650.19;;;1.07;97.61
9423;BME280;4750;49.506;10.400;2022-11-12T05:37:19;99647.56;;;1.03;97.45
9423;BME280;4750;49.506;10.400;2022-11-12T05:40:22;99648.31;;;1.04;97.59
9423;BME280;4750;49.506;10.400;2022-11-12T05:43:25;99645.31;;;1.11;97.56
9423;BME280;4750;49.506;10.400;2022-11-12T05:46:28;99661.94;;;1.33;97.45
9423;BME280;4750;49.506;10.400;2022-11-12T05:49:31;99646.72;;;1.16;97.31
9423;BME280;4750;49.506;10.400;2022-11-12T05:52:34;99653.03;;;1.16;97.68
9423;BME280;4750;49.506;10.400;2022-11-12T05:55:37;99650.59;;;1.18;97.62
9423;BME280;4750;49.506;10.400;2022-11-12T05:58:40;99573.34;;;0.67;97.74
9423;BME280;4750;49.506;10.400;2022-11-12T06:01:42;99662.19;;;1.26;97.70
9423;BME280;4750;49.506;10.400;2022-11-12T06:04:46;99652.00;;;1.23;97.69
9423;BME280;4750;49.506;10.400;2022-11-12T06:07:49;99664.50;;;1.28;98.14
9423;BME280;4750;49.506;10.400;2022-11-12T06:10:52;99675.44;;;1.31;97.98
9423;BME280;4750;49.506;10.400;2022-11-12T06:13:55;99662.50;;;1.28;97.92
9423;BME280;4750;49.506;10.400;2022-11-12T06:16:58;99681.06;;;1.41;98.00
9423;BME280;4750;49.506;10.400;2022-11-12T06:20:01;99683.22;;;1.46;97.86
9423;BME280;4750;49.506;10.400;2022-11-12T06:23:04;99684.16;;;1.65;97.99
9423;BME280;4750;49.506;10.400;2022-11-12T06:26:07;99688.69;;;1.59;98.20
9423;BME280;4750;49.506;10.400;2022-11-12T06:29:10;99656.66;;;1.26;97.69
9423;BME280;4750;49.506;10.400;2022-11-12T06:32:13;99656.00;;;1.22;98.05
9423;BME280;4750;49.506;10.400;2022-11-12T06:35:17;99694.50;;;1.51;98.00
9423;BME280;4750;49.506;10.400;2022-11-12T06:38:20;99674.94;;;1.46;98.18
9423;BME280;4750;49.506;10.400;2022-11-12T06:41:23;99675.00;;;1.55;97.94
9423;BME280;4750;49.506;10.400;2022-11-12T06:44:25;99697.53;;;1.66;97.95
9423;BME280;4750;49.506;10.400;2022-11-12T06:47:29;99678.16;;;1.44;97.93
9423;BME280;4750;49.506;10.400;2022-11-12T06:50:31;99681.00;;;1.53;98.12
9423;BME280;4750;49.506;10.400;2022-11-12T06:53:34;99703.75;;;1.80;98.31
9423;BME280;4750;49.506;10.400;2022-11-12T06:56:37;99703.38;;;1.68;98.36
9423;BME280;4750;49.506;10.400;2022-11-12T06:59:39;99686.13;;;1.64;98.56
9423;BME280;4750;49.506;10.400;2022-11-12T07:02:42;99690.63;;;1.71;98.42
9423;BME280;4750;49.506;10.400;2022-11-12T07:05:45;99684.22;;;1.52;98.47
9423;BME280;4750;49.506;10.400;2022-11-12T07:08:49;99694.97;;;1.72;98.29
9423;BME280;4750;49.506;10.400;2022-11-12T07:11:51;99682.91;;;1.66;98.53
9423;BME280;4750;49.506;10.400;2022-11-12T07:14:54;99696.06;;;1.75;98.64
9423;BME280;4750;49.506;10.400;2022-11-12T07:17:57;99709.63;;;1.82;98.42
9423;BME280;4750;49.506;10.400;2022-11-12T07:21:04;99700.94;;;1.70;98.63
9423;BME280;4750;49.506;10.400;2022-11-12T07:24:07;99687.28;;;1.54;98.82
9423;BME280;4750;49.506;10.400;2022-11-12T07:27:10;99707.31;;;1.80;99.06
9423;BME280;4750;49.506;10.400;2022-11-12T07:30:13;99662.88;;;1.84;98.62
9423;BME280;4750;49.506;10.400;2022-11-12T07:33:16;99690.34;;;2.00;98.71
9423;BME280;4750;49.506;10.400;2022-11-12T07:36:20;99686.25;;;1.83;99.05
9423;BME280;4750;49.506;10.400;2022-11-12T07:39:22;99693.34;;;1.84;98.74
9423;BME280;4750;49.506;10.400;2022-11-12T07:42:25;99683.91;;;1.81;98.84
9423;BME280;4750;49.506;10.400;2022-11-12T07:45:29;99693.78;;;1.82;99.16
9423;BME280;4750;49.506;10.400;2022-11-12T07:48:32;99679.44;;;1.75;98.89
9423;BME280;4750;49.506;10.400;2022-11-12T07:51:35;99673.94;;;1.84;99.14
9423;BME280;4750;49.506;10.400;2022-11-12T07:54:38;99676.97;;;1.77;99.22
9423;BME280;4750;49.506;10.400;2022-11-12T07:57:41;99699.31;;;2.04;98.92
9423;BME280;4750;49.506;10.400;2022-11-12T08:00:43;99669.03;;;1.88;99.09
9423;BME280;4750;49.506;10.400;2022-11-12T08:03:46;99673.84;;;1.97;99.18
9423;BME280;4750;49.506;10.400;2022-11-12T08:06:49;99678.84;;;1.80;98.98
9423;BME280;4750;49.506;10.400;2022-11-12T08:09:52;99682.81;;;2.01;99.42
9423;BME280;4750;49.506;10.400;2022-11-12T08:12:56;99700.25;;;2.11;99.53
9423;BME280;4750;49.506;10.400;2022-11-12T08:15:59;99684.66;;;2.04;99.24
9423;BME280;4750;49.506;10.400;2022-11-12T08:19:02;99683.91;;;2.03;99.16
9423;BME280;4750;49.506;10.400;2022-11-12T08:22:04;99690.13;;;2.17;99.27
9423;BME280;4750;49.506;10.400;2022-11-12T08:25:08;99689.03;;;2.14;99.27
9423;BME280;4750;49.506;10.400;2022-11-12T08:28:11;99694.38;;;2.40;99.39
9423;BME280;4750;49.506;10.400;2022-11-12T08:31:18;99692.25;;;2.44;99.24
9423;BME280;4750;49.506;10.400;2022-11-12T08:34:22;99683.66;;;2.51;99.30
9423;BME280;4750;49.506;10.400;2022-11-12T08:37:25;99712.19;;;2.70;99.70
9423;BME280;4750;49.506;10.400;2022-11-12T08:40:30;99705.31;;;2.84;99.44
9423;BME280;4750;49.506;10.400;2022-11-12T08:43:33;99691.91;;;2.83;99.11
9423;BME280;4750;49.506;10.400;2022-11-12T08:46:36;99685.78;;;3.06;99.26
9423;BME280;4750;49.506;10.400;2022-11-12T08:49:39;99690.84;;;3.36;99.22
9423;BME280;4750;49.506;10.400;2022-11-12T08:52:42;99701.50;;;3.65;99.58
9423;BME280;4750;49.506;10.400;2022-11-12T08:55:45;99721.06;;;3.99;99.56
9423;BME280;4750;49.506;10.400;2022-11-12T08:58:47;99715.63;;;4.04;99.29
9423;BME280;4750;49.506;10.400;2022-11-12T09:01:50;99700.84;;;3.89;99.36
9423;BME280;4750;49.506;10.400;2022-11-12T09:04:53;99715.03;;;4.00;98.96
9423;BME280;4750;49.506;10.400;2022-11-12T09:08:01;99699.88;;;4.10;98.96
9423;BME280;4750;49.506;10.400;2022-11-12T09:11:05;99697.50;;;4.18;99.05
9423;BME280;4750;49.506;10.400;2022-11-12T09:14:08;99700.03;;;4.50;98.97
9423;BME280;4750;49.506;10.400;2022-11-12T09:17:37;99705.69;;;4.89;98.80
9423;BME280;4750;49.506;10.400;2022-11-12T09:20:41;99710.97;;;5.11;98.39
9423;BME280;4750;49.506;10.400;2022-11-12T09:23:44;99719.31;;;5.35;98.30
9423;BME280;4750;49.506;10.400;2022-11-12T09:26:51;99665.91;;;4.97;98.20
9423;BME280;4750;49.506;10.400;2022-11-12T09:29:54;99708.09;;;5.44;97.63
9423;BME280;4750;49.506;10.400;2022-11-12T09:32:57;99715.78;;;5.10;96.98
9423;BME280;4750;49.506;10.400;2022-11-12T09:36:02;99704.16;;;5.36;97.22
9423;BME280;4750;49.506;10.400;2022-11-12T09:39:05;99689.59;;;5.56;96.54
9423;BME280;4750;49.506;10.400;2022-11-12T09:42:12;99682.38;;;5.79;96.35
9423;BME280;4750;49.506;10.400;2022-11-12T09:45:30;99657.69;;;5.72;95.72
9423;BME280;4750;49.506;10.400;2022-11-12T09:48:39;99672.31;;;5.97;95.30
9423;BME280;4750;49.506;10.400;2022-11-12T09:51:49;99693.34;;;6.43;94.87
9423;BME280;4750;49.506;10.400;2022-11-12T09:55:06;99661.91;;;6.42;94.73
9423;BME280;4750;49.506;10.400;2022-11-12T09:58:11;99673.44;;;6.70;94.04
9423;BME280;4750;49.506;10.400;2022-11-12T10:08:40;99687.06;;;7.45;91.17
9423;BME280;4750;49.506;10.400;2022-11-12T10:15:36;99686.53;;;7.67;89.56
9423;BME280;4750;49.506;10.400;2022-11-12T10:26:22;99656.31;;;7.98;86.97
9423;BME280;4750;49.506;10.400;2022-11-12T10:29:57;99660.81;;;8.21;86.95
9423;BME280;4750;49.506;10.400;2022-11-12T10:33:02;99631.44;;;8.00;86.85
9423;BME280;4750;49.506;10.400;2022-11-12T10:36:19;99630.84;;;7.90;87.17
9423;BME280;4750;49.506;10.400;2022-11-12T10:39:41;99630.59;;;8.25;86.92
9423;BME280;4750;49.506;10.400;2022-11-12T10:43:03;99622.84;;;8.09;86.86
9423;BME280;4750;49.506;10.400;2022-11-12T10:46:34;99648.41;;;8.66;86.91
9423;BME280;4750;49.506;10.400;2022-11-12T10:49:37;99626.16;;;8.45;86.38
9423;BME280;4750;49.506;10.400;2022-11-12T10:52:55;99614.59;;;8.69;85.88
9423;BME280;4750;49.506;10.400;2022-11-12T10:56:00;99616.66;;;8.80;85.08
9423;BME280;4750;49.506;10.400;2022-11-12T10:59:17;99628.44;;;8.95;84.72
9423;BME280;4750;49.506;10.400;2022-11-12T11:02:20;99606.41;;;8.66;84.30
9423;BME280;4750;49.506;10.400;2022-11-12T11:05:32;99561.56;;;8.49;84.54
9423;BME280;4750;49.506;10.400;2022-11-12T11:08:37;99618.97;;;8.87;84.62
9423;BME280;4750;49.506;10.400;2022-11-12T11:11:48;99609.75;;;8.70;84.71
9423;BME280;4750;49.506;10.400;2022-11-12T11:18:18;99633.00;;;8.93;85.55
9423;BME280;4750;49.506;10.400;2022-11-12T11:25:09;99623.25;;;9.37;85.52
9423;BME280;4750;49.506;10.400;2022-11-12T11:28:33;99587.31;;;9.30;85.25
9423;BME280;4750;49.506;10.400;2022-11-12T11:31:55;99618.69;;;9.74;85.25
9423;BME280;4750;49.506;10.400;2022-11-12T11:35:23;99612.09;;;9.77;84.71
9423;BME280;4750;49.506;10.400;2022-11-12T11:55:15;99587.81;;;10.02;83.78
9423;BME280;4750;49.506;10.400;2022-11-12T11:58:57;99583.25;;;10.05;83.85
9423;BME280;4750;49.506;10.400;2022-11-12T12:02:09;99585.78;;;10.14;83.78
9423;BME280;4750;49.506;10.400;2022-11-12T12:19:07;99557.50;;;9.67;84.90
9423;BME280;4750;49.506;10.400;2022-11-12T12:22:15;99571.50;;;10.06;85.08
9423;BME280;4750;49.506;10.400;2022-11-12T12:25:26;99550.38;;;9.99;85.09
9423;BME280;4750;49.506;10.400;2022-11-12T12:28:36;99556.75;;;9.89;85.15
9423;BME280;4750;49.506;10.400;2022-11-12T12:31:47;99568.47;;;9.98;85.00
9423;BME280;4750;49.506;10.400;2022-11-12T12:34:55;99558.50;;;9.97;84.84
9423;BME280;4750;49.506;10.400;2022-11-12T12:38:10;99550.34;;;10.11;85.43
9423;BME280;4750;49.506;10.400;2022-11-12T12:41:19;99552.09;;;10.25;85.39
9423;BME280;4750;49.506;10.400;2022-11-12T12:44:37;99536.56;;;10.13;85.14
9423;BME280;4750;49.506;10.400;2022-11-12T12:48:05;99514.88;;;10.02;85.34
9423;BME280;4750;49.506;10.400;2022-11-12T12:51:09;99540.09;;;10.19;85.13
9423;BME280;4750;49.506;10.400;2022-11-12T12:57:59;99498.81;;;10.08;85.41
9423;BME280;4750;49.506;10.400;2022-11-12T13:01:27;99508.25;;;10.11;84.69
9423;BME280;4750;49.506;10.400;2022-11-12T13:04:55;99523.22;;;10.42;85.04
9423;BME280;4750;49.506;10.400;2022-11-12T13:08:02;99487.31;;;10.17;84.54
9423;BME280;4750;49.506;10.400;2022-11-12T13:11:07;99522.16;;;10.56;84.67
9423;BME280;4750;49.506;10.400;2022-11-12T13:17:45;99516.03;;;10.58;84.10
9423;BME280;4750;49.506;10.400;2022-11-12T13:24:09;99491.09;;;10.37;84.27
9423;BME280;4750;49.506;10.400;2022-11-12T13:27:12;99514.53;;;10.45;84.04
9423;BME280;4750;49.506;10.400;2022-11-12T13:33:30;99524.72;;;10.54;84.62
9423;BME280;4750;49.506;10.400;2022-11-12T13:36:33;99507.34;;;10.56;84.28
9423;BME280;4750;49.506;10.400;2022-11-12T13:39:36;99519.34;;;10.62;84.59
9423;BME280;4750;49.506;10.400;2022-11-12T13:42:40;99482.41;;;10.41;84.38
9423;BME280;4750;49.506;10.400;2022-11-12T13:45:57;99520.09;;;10.62;84.40
9423;BME280;4750;49.506;10.400;2022-11-12T13:49:04;99492.63;;;10.32;84.14
9423;BME280;4750;49.506;10.400;2022-11-12T13:52:14;99508.69;;;10.43;84.49
9423;BME280;4750;49.506;10.400;2022-11-12T13:55:21;99462.88;;;10.07;84.80
9423;BME280;4750;49.506;10.400;2022-11-12T13:58:33;99512.53;;;10.34;85.02
9423;BME280;4750;49.506;10.400;2022-11-12T14:01:36;99486.50;;;10.28;84.98
9423;BME280;4750;49.506;10.400;2022-11-12T14:04:39;99511.75;;;10.40;84.82
9423;BME280;4750;49.506;10.400;2022-11-12T14:07:51;99472.00;;;10.19;84.89
9423;BME280;4750;49.506;10.400;2022-11-12T14:11:06;99508.94;;;10.45;85.27
9423;BME280;4750;49.506;10.400;2022-11-12T14:21:17;99459.88;;;9.76;85.46
9423;BME280;4750;49.506;10.400;2022-11-12T14:24:19;99499.13;;;9.82;85.43
9423;BME280;4750;49.506;10.400;2022-11-12T14:30:33;99473.41;;;9.55;85.86
9423;BME280;4750;49.506;10.400;2022-11-12T14:33:36;99506.03;;;9.64;86.32
9423;BME280;4750;49.506;10.400;2022-11-12T14:36:39;99445.38;;;9.10;86.74
9423;BME280;4750;49.506;10.400;2022-11-12T14:39:41;99495.06;;;9.43;87.10
9423;BME280;4750;49.506;10.400;2022-11-12T14:42:45;99477.50;;;9.20;87.50
9423;BME280;4750;49.506;10.400;2022-11-12T14:45:49;99477.50;;;9.15;87.75
9423;BME280;4750;49.506;10.400;2022-11-12T14:49:00;99478.97;;;8.99;87.73
9423;BME280;4750;49.506;10.400;2022-11-12T14:52:10;99469.53;;;8.79;88.41
9423;BME280;4750;49.506;10.400;2022-11-12T14:55:16;99479.72;;;8.82;88.45
9423;BME280;4750;49.506;10.400;2022-11-12T14:58:22;99480.97;;;8.70;89.06
9423;BME280;4750;49.506;10.400;2022-11-12T15:01:34;99492.16;;;8.70;89.72
9423;BME280;4750;49.506;10.400;2022-11-12T15:04:42;99463.53;;;8.43;90.13
9423;BME280;4750;49.506;10.400;2022-11-12T15:11:16;99472.38;;;8.24;90.47
9423;BME280;4750;49.506;10.400;2022-11-12T15:14:22;99475.72;;;8.34;90.73
9423;BME280;4750;49.506;10.400;2022-11-12T15:20:32;99456.56;;;8.16;91.39
9423;BME280;4750;49.506;10.400;2022-11-12T15:23:35;99434.56;;;7.86;91.54
9423;BME280;4750;49.506;10.400;2022-11-12T15:26:41;99432.94;;;7.68;92.00
9423;BME280;4750;49.506;10.400;2022-11-12T15:29:44;99440.28;;;7.65;92.32
9423;BME280;4750;49.506;10.400;2022-11-12T15:32:47;99436.44;;;7.57;92.58
9423;BME280;4750;49.506;10.400;2022-11-12T15:35:57;99454.97;;;7.54;92.63
9423;BME280;4750;49.506;10.400;2022-11-12T15:39:01;99431.91;;;7.28;93.21
9423;BME280;4750;49.506;10.400;2022-11-12T15:42:26;99460.50;;;7.49;92.72
9423;BME280;4750;49.506;10.400;2022-11-12T15:45:30;99455.38;;;7.41;93.30
9423;BME280;4750;49.506;10.400;2022-11-12T15:48:33;99463.72;;;7.36;93.72
9423;BME280;4750;49.506;10.400;2022-11-12T15:51:35;99399.81;;;6.85;93.86
9423;BME280;4750;49.506;10.400;2022-11-12T15:54:38;99451.81;;;7.09;93.83
9423;BME280;4750;49.506;10.400;2022-11-12T15:57:43;99423.94;;;6.88;94.02
9423;BME280;4750;49.506;10.400;2022-11-12T16:00:48;99422.84;;;6.80;94.44
9423;BME280;4750;49.506;10.400;2022-11-12T16:03:50;99444.44;;;6.80;94.64
9423;BME280;4750;49.506;10.400;2022-11-12T16:06:53;99413.00;;;6.59;94.89
9423;BME280;4750;49.506;10.400;2022-11-12T16:09:56;99435.63;;;6.61;95.20
9423;BME280;4750;49.506;10.400;2022-11-12T16:13:00;99413.13;;;6.44;94.86
9423;BME280;4750;49.506;10.400;2022-11-12T16:16:05;99438.34;;;6.55;95.14
9423;BME280;4750;49.506;10.400;2022-11-12T16:19:13;99435.22;;;6.47;95.47
9423;BME280;4750;49.506;10.400;2022-11-12T16:22:19;99391.81;;;5.99;95.47
9423;BME280;4750;49.506;10.400;2022-11-12T16:25:27;99417.41;;;6.18;95.62
9423;BME280;4750;49.506;10.400;2022-11-12T16:28:31;99397.38;;;5.99;96.04
9423;BME280;4750;49.506;10.400;2022-11-12T16:31:33;99388.66;;;5.92;96.20
9423;BME280;4750;49.506;10.400;2022-11-12T16:34:36;99410.44;;;6.08;96.34
9423;BME280;4750;49.506;10.400;2022-11-12T16:37:40;99422.28;;;6.03;96.50
9423;BME280;4750;49.506;10.400;2022-11-12T16:40:44;99429.06;;;6.17;96.49
9423;BME280;4750;49.506;10.400;2022-11-12T16:43:47;99346.56;;;5.48;96.77
9423;BME280;4750;49.506;10.400;2022-11-12T16:46:49;99394.66;;;5.84;96.64
9423;BME280;4750;49.506;10.400;2022-11-12T16:49:53;99390.19;;;5.72;96.74
9423;BME280;4750;49.506;10.400;2022-11-12T16:52:56;99417.09;;;5.96;96.78
9423;BME280;4750;49.506;10.400;2022-11-12T16:55:59;99403.91;;;5.76;96.64
9423;BME280;4750;49.506;10.400;2022-11-12T16:59:01;99391.56;;;5.62;96.55
9423;BME280;4750;49.506;10.400;2022-11-12T17:02:10;99408.56;;;5.64;97.13
9423;BME280;4750;49.506;10.400;2022-11-12T17:05:17;99421.50;;;5.67;96.96
9423;BME280;4750;49.506;10.400;2022-11-12T17:08:23;99388.75;;;5.41;96.77
9423;BME280;4750;49.506;10.400;2022-11-12T17:11:31;99410.78;;;5.60;97.02
9423;BME280;4750;49.506;10.400;2022-11-12T17:14:35;99383.00;;;5.30;97.38
9423;BME280;4750;49.506;10.400;2022-11-12T17:17:37;99343.72;;;4.92;97.45
9423;BME280;4750;49.506;10.400;2022-11-12T17:20:40;99402.81;;;5.32;97.17
9423;BME280;4750;49.506;10.400;2022-11-12T17:23:43;99385.19;;;5.05;97.13
9423;BME280;4750;49.506;10.400;2022-11-12T17:26:46;99326.47;;;4.73;97.36
9423;BME280;4750;49.506;10.400;2022-11-12T17:29:49;99369.84;;;4.80;97.44
9423;BME280;4750;49.506;10.400;2022-11-12T17:32:52;99388.63;;;5.00;97.46
9423;BME280;4750;49.506;10.400;2022-11-12T17:36:02;99405.72;;;5.08;97.29
9423;BME280;4750;49.506;10.400;2022-11-12T17:39:09;99379.81;;;4.87;97.40
9423;BME280;4750;49.506;10.400;2022-11-12T17:42:12;99369.34;;;4.81;97.41
9423;BME280;4750;49.506;10.400;2022-11-12T17:45:15;99386.53;;;4.80;97.20
9423;BME280;4750;49.506;10.400;2022-11-12T17:48:18;99367.16;;;4.71;97.39
9423;BME280;4750;49.506;10.400;2022-11-12T17:51:24;99369.94;;;4.71;97.25
9423;BME280;4750;49.506;10.400;2022-11-12T17:54:27;99329.16;;;4.38;97.17
9423;BME280;4750;49.506;10.400;2022-11-12T17:57:30;99368.50;;;4.75;97.57
9423;BME280;4750;49.506;10.400;2022-11-12T18:00:34;99399.66;;;4.94;97.53
9423;BME280;4750;49.506;10.400;2022-11-12T18:03:38;99402.66;;;4.91;97.90
9423;BME280;4750;49.506;10.400;2022-11-12T18:06:41;99373.88;;;4.64;98.05
9423;BME280;4750;49.506;10.400;2022-11-12T18:09:44;99403.22;;;4.80;98.12
9423;BME280;4750;49.506;10.400;2022-11-12T18:12:47;99376.47;;;4.53;97.90
9423;BME280;4750;49.506;10.400;2022-11-12T18:15:50;99393.25;;;4.58;98.14